Time;durP1;ratioP1;P1;durP2;ratioP2;P2;SDS_P1;SDS_P2;PMS_P1;PMS_P2;Temp;Humidity;BMP_temperature;BMP_pressure;BME280_temperature;BME280_humidity;BME280_pressure;Samples;Min_cycle;Max_cycle;Signal;HPM_P1;HPM_P2
2022/05/24 00:01:16;;;;;;;2.80;1.90;;;;;;;;;;5103131;28;20196;-69
2022/05/24 00:03:42;;;;;;;2.75;2.08;;;;;;;;;;5103161;28;20203;-69
2022/05/24 00:06:09;;;;;;;3.83;2.15;;;;;;;;;;5103112;28;20227;-69
2022/05/24 00:08:35;;;;;;;5.50;2.30;;;;;;;;;;5103085;28;20195;-69
2022/05/24 00:11:01;;;;;;;3.83;2.30;;;;;;;;;;5103023;28;20421;-69
2022/05/24 00:13:28;;;;;;;3.47;1.98;;;;;;;;;;5103186;28;20196;-69
2022/05/24 00:15:54;;;;;;;4.15;1.95;;;;;;;;;;5102820;28;20196;-69
2022/05/24 00:18:23;;;;;;;2.95;2.08;;;;;;;;;;5102816;28;20203;-69
2022/05/24 00:20:51;;;;;;;4.07;2.10;;;;;;;;;;5102674;28;20203;-69
2022/05/24 00:23:18;;;;;;;5.95;1.85;;;;;;;;;;5102860;28;20267;-69
2022/05/24 00:25:46;;;;;;;0.95;0.70;;;;;;;;;;5102928;28;20202;-69
2022/05/24 00:28:13;;;;;;;4.25;0.90;;;;;;;;;;5102385;28;20228;-69
2022/05/24 00:30:39;;;;;;;0.70;0.70;;;;;;;;;;5102648;28;20196;-69
2022/05/24 00:33:06;;;;;;;2.90;0.80;;;;;;;;;;5102624;28;20581;-69
2022/05/24 00:35:34;;;;;;;1.52;0.50;;;;;;;;;;5102938;28;20210;-69
2022/05/24 00:38:00;;;;;;;1.83;0.70;;;;;;;;;;5102777;28;20199;-69
2022/05/24 00:40:35;;;;;;;2.05;0.70;;;;;;;;;;5102869;28;20204;-69
2022/05/24 00:43:02;;;;;;;1.48;0.65;;;;;;;;;;5102592;28;20199;-69
2022/05/24 00:45:31;;;;;;;2.17;0.80;;;;;;;;;;5102422;28;20203;-69
2022/05/24 00:48:01;;;;;;;1.42;0.90;;;;;;;;;;5102057;28;20418;-69
2022/05/24 00:50:30;;;;;;;1.95;0.90;;;;;;;;;;5102642;28;20203;-69
2022/05/24 00:53:00;;;;;;;0.55;0.55;;;;;;;;;;5102458;28;20196;-69
2022/05/24 00:55:27;;;;;;;0.57;0.57;;;;;;;;;;5102460;28;20233;-69
2022/05/24 00:57:58;;;;;;;0.75;0.60;;;;;;;;;;5102270;28;20266;-69
2022/05/24 01:00:24;;;;;;;0.63;0.63;;;;;;;;;;5102247;28;20212;-69
2022/05/24 01:02:51;;;;;;;2.17;0.73;;;;;;;;;;5102236;28;20210;-69
2022/05/24 01:05:19;;;;;;;2.92;0.70;;;;;;;;;;5102358;28;20215;-69
2022/05/24 01:07:45;;;;;;;0.65;0.63;;;;;;;;;;5102406;28;20219;-69
2022/05/24 01:10:16;;;;;;;0.68;0.68;;;;;;;;;;5102128;28;20201;-69
2022/05/24 01:12:45;;;;;;;0.52;0.52;;;;;;;;;;5102294;28;20270;-69
2022/05/24 01:15:12;;;;;;;0.63;0.60;;;;;;;;;;5102301;28;20196;-69
2022/05/24 01:17:39;;;;;;;0.40;0.40;;;;;;;;;;5102123;28;20199;-69
2022/05/24 01:20:06;;;;;;;0.50;0.50;;;;;;;;;;5102187;28;20195;-69
2022/05/24 01:22:47;;;;;;;0.52;0.52;;;;;;;;;;5102259;28;20227;-69
2022/05/24 01:25:17;;;;;;;0.60;0.60;;;;;;;;;;5089110;28;20191;-69
2022/05/24 01:27:45;;;;;;;0.50;0.50;;;;;;;;;;5101955;28;20220;-69
2022/05/24 01:30:12;;;;;;;2.38;0.60;;;;;;;;;;5102461;28;20521;-69
2022/05/24 01:38:08;;;;;;;0.70;0.70;;;;;;;;;;5101842;28;20191;-69
2022/05/24 01:40:35;;;;;;;1.38;0.52;;;;;;;;;;5106022;28;20199;-69
2022/05/24 01:43:02;;;;;;;0.73;0.50;;;;;;;;;;5105975;28;20196;-70
2022/05/24 01:45:31;;;;;;;0.95;0.50;;;;;;;;;;5105175;28;20207;-69
2022/05/24 01:47:59;;;;;;;0.40;0.40;;;;;;;;;;5105628;28;20219;-69
2022/05/24 01:50:26;;;;;;;3.83;0.60;;;;;;;;;;5105879;28;20191;-69
2022/05/24 01:52:55;;;;;;;0.43;0.43;;;;;;;;;;5105668;28;20533;-69
2022/05/24 01:55:24;;;;;;;0.40;0.40;;;;;;;;;;5105756;28;20202;-69
2022/05/24 01:57:52;;;;;;;0.95;0.47;;;;;;;;;;5105251;28;20218;-69
2022/05/24 02:00:20;;;;;;;0.80;0.65;;;;;;;;;;5105665;28;20204;-69
2022/05/24 02:02:47;;;;;;;1.10;0.55;;;;;;;;;;5105486;28;20204;-69
2022/05/24 02:05:14;;;;;;;0.77;0.70;;;;;;;;;;5105500;28;20222;-70
2022/05/24 02:07:40;;;;;;;0.40;0.40;;;;;;;;;;5105103;28;20203;-69
2022/05/24 02:10:08;;;;;;;0.50;0.50;;;;;;;;;;5105306;28;20526;-69
2022/05/24 02:12:37;;;;;;;0.50;0.50;;;;;;;;;;5105152;28;20200;-69
2022/05/24 02:15:05;;;;;;;1.27;0.38;;;;;;;;;;5105551;28;20200;-69
2022/05/24 02:17:39;;;;;;;0.60;0.50;;;;;;;;;;5105213;28;20491;-69
2022/05/24 02:20:05;;;;;;;2.72;0.60;;;;;;;;;;5105351;28;20196;-69
2022/05/24 02:22:32;;;;;;;1.17;0.50;;;;;;;;;;5105037;28;20233;-69
2022/05/24 02:24:59;;;;;;;0.52;0.50;;;;;;;;;;5104986;28;20199;-69
2022/05/24 02:27:26;;;;;;;1.90;0.57;;;;;;;;;;5104637;28;20446;-69
2022/05/24 02:29:53;;;;;;;0.65;0.60;;;;;;;;;;5104894;28;20200;-69
2022/05/24 02:32:19;;;;;;;0.55;0.55;;;;;;;;;;5105146;28;20204;-69
2022/05/24 02:34:47;;;;;;;4.03;0.80;;;;;;;;;;5105006;28;20195;-69
2022/05/24 02:37:13;;;;;;;0.50;0.50;;;;;;;;;;5104599;28;20383;-69
2022/05/24 02:42:19;;;;;;;0.70;0.70;;;;;;;;;;5104431;28;20190;-70
2022/05/24 02:44:46;;;;;;;1.80;0.60;;;;;;;;;;5104549;28;20196;-69
2022/05/24 02:47:12;;;;;;;2.60;0.50;;;;;;;;;;5104493;28;20552;-69
2022/05/24 02:49:38;;;;;;;0.60;0.60;;;;;;;;;;5104972;28;20196;-69
2022/05/24 02:52:06;;;;;;;1.90;0.50;;;;;;;;;;5104582;28;20200;-69
2022/05/24 02:54:33;;;;;;;1.40;0.40;;;;;;;;;;5104725;28;20378;-69
2022/05/24 02:57:01;;;;;;;0.50;0.50;;;;;;;;;;5104412;28;20499;-69
2022/05/24 02:59:27;;;;;;;0.60;0.60;;;;;;;;;;5104559;28;20407;-70
2022/05/24 03:01:53;;;;;;;0.60;0.60;;;;;;;;;;5104374;28;20202;-70
2022/05/24 03:04:20;;;;;;;0.68;0.68;;;;;;;;;;5104343;28;20226;-70
2022/05/24 03:09:37;;;;;;;0.50;0.50;;;;;;;;;;5104483;28;20194;-70
2022/05/24 03:14:49;;;;;;;0.63;0.63;;;;;;;;;;5104133;28;20210;-69
2022/05/24 03:17:16;;;;;;;0.50;0.50;;;;;;;;;;5103746;28;20204;-69
2022/05/24 03:19:42;;;;;;;1.05;0.50;;;;;;;;;;5104133;28;20201;-69
2022/05/24 03:22:09;;;;;;;0.60;0.60;;;;;;;;;;5104031;28;20199;-69
2022/05/24 03:24:37;;;;;;;3.40;0.80;;;;;;;;;;5104026;28;20223;-69
2022/05/24 03:27:05;;;;;;;1.90;0.70;;;;;;;;;;5103648;28;20507;-69
2022/05/24 03:29:32;;;;;;;1.38;0.73;;;;;;;;;;5103764;28;20235;-69
2022/05/24 03:31:58;;;;;;;0.68;0.68;;;;;;;;;;5103720;28;20211;-69
2022/05/24 03:34:25;;;;;;;0.60;0.60;;;;;;;;;;5103814;28;20203;-69
2022/05/24 03:36:51;;;;;;;2.00;0.80;;;;;;;;;;5103455;28;20208;-69
2022/05/24 03:39:17;;;;;;;0.50;0.50;;;;;;;;;;5103721;28;20499;-69
2022/05/24 03:41:46;;;;;;;0.90;0.90;;;;;;;;;;5103472;28;20210;-69
2022/05/24 03:44:12;;;;;;;1.40;0.70;;;;;;;;;;5103497;28;20459;-69
2022/05/24 03:46:38;;;;;;;2.40;0.60;;;;;;;;;;5103819;28;20196;-69
2022/05/24 03:49:05;;;;;;;1.80;0.80;;;;;;;;;;5103538;28;20223;-69
2022/05/24 03:51:31;;;;;;;0.98;0.70;;;;;;;;;;5103315;28;20447;-69
2022/05/24 03:53:57;;;;;;;0.60;0.60;;;;;;;;;;5103513;28;20514;-69
2022/05/24 03:56:24;;;;;;;0.80;0.80;;;;;;;;;;5103067;28;20196;-69
2022/05/24 03:58:51;;;;;;;1.05;0.90;;;;;;;;;;5103227;28;20379;-69
2022/05/24 04:01:18;;;;;;;0.80;0.80;;;;;;;;;;5102905;28;20431;-69
2022/05/24 04:03:44;;;;;;;1.60;0.80;;;;;;;;;;5103097;28;20203;-69
2022/05/24 04:06:10;;;;;;;4.35;0.75;;;;;;;;;;5102910;28;20216;-69
2022/05/24 04:08:37;;;;;;;0.82;0.82;;;;;;;;;;5103012;28;20219;-69
2022/05/24 04:11:05;;;;;;;3.70;0.80;;;;;;;;;;5102998;28;20206;-69
2022/05/24 04:13:32;;;;;;;1.48;0.80;;;;;;;;;;5102942;28;20203;-69
2022/05/24 04:15:59;;;;;;;2.05;1.00;;;;;;;;;;5102840;28;20241;-69
2022/05/24 04:18:26;;;;;;;3.20;0.80;;;;;;;;;;5102977;28;20195;-69
2022/05/24 04:20:52;;;;;;;0.70;0.70;;;;;;;;;;5102793;28;20200;-69
2022/05/24 04:23:21;;;;;;;1.48;1.02;;;;;;;;;;5102969;28;20400;-69
2022/05/24 04:25:48;;;;;;;3.40;0.90;;;;;;;;;;5102685;28;20394;-69
2022/05/24 04:28:14;;;;;;;0.73;0.73;;;;;;;;;;5102598;28;20435;-69
2022/05/24 04:30:41;;;;;;;12.02;1.25;;;;;;;;;;5102826;28;20202;-69
2022/05/24 04:33:09;;;;;;;2.50;1.13;;;;;;;;;;5103089;28;20233;-69
2022/05/24 04:35:35;;;;;;;1.20;1.10;;;;;;;;;;5102742;28;20204;-69
2022/05/24 04:38:01;;;;;;;0.80;0.75;;;;;;;;;;5102447;28;20199;-69
2022/05/24 04:43:08;;;;;;;4.28;0.82;;;;;;;;;;5102315;28;20192;-69
2022/05/24 04:45:34;;;;;;;2.50;0.90;;;;;;;;;;5102674;28;20233;-69
2022/05/24 04:48:00;;;;;;;0.80;0.80;;;;;;;;;;5102216;28;20215;-69
2022/05/24 04:50:28;;;;;;;1.92;1.30;;;;;;;;;;5102392;28;20196;-69
2022/05/24 04:52:54;;;;;;;2.88;1.15;;;;;;;;;;5102343;28;20395;-69
2022/05/24 04:55:21;;;;;;;1.35;1.25;;;;;;;;;;5102210;28;20207;-69
2022/05/24 04:57:47;;;;;;;1.35;1.30;;;;;;;;;;5102352;28;20605;-69
2022/05/24 05:00:15;;;;;;;4.95;1.50;;;;;;;;;;5102518;28;20421;-69
2022/05/24 05:02:41;;;;;;;2.75;1.50;;;;;;;;;;5102261;28;20222;-70
2022/05/24 05:05:08;;;;;;;2.38;1.50;;;;;;;;;;5102516;28;20224;-70
2022/05/24 05:07:35;;;;;;;1.40;1.40;;;;;;;;;;5101599;28;20500;-70
2022/05/24 05:10:02;;;;;;;1.50;1.50;;;;;;;;;;5102460;28;20203;-70
2022/05/24 05:12:28;;;;;;;1.75;1.35;;;;;;;;;;5102462;28;20207;-69
2022/05/24 05:14:54;;;;;;;4.07;1.38;;;;;;;;;;5105562;28;20203;-70
2022/05/24 05:17:20;;;;;;;2.95;1.13;;;;;;;;;;5105749;28;20207;-70
2022/05/24 05:19:47;;;;;;;1.70;1.60;;;;;;;;;;5106019;28;20192;-69
2022/05/24 05:22:14;;;;;;;4.82;1.50;;;;;;;;;;5106647;28;20199;-70
2022/05/24 05:24:42;;;;;;;3.42;1.40;;;;;;;;;;5106111;28;20237;-69
2022/05/24 05:27:08;;;;;;;3.10;1.80;;;;;;;;;;5105655;28;20195;-69
2022/05/24 05:32:18;;;;;;;2.10;2.00;;;;;;;;;;5106260;28;20194;-69
2022/05/24 05:34:45;;;;;;;2.20;2.03;;;;;;;;;;5105508;28;20195;-69
2022/05/24 05:37:11;;;;;;;2.00;1.90;;;;;;;;;;5105796;28;20195;-69
2022/05/24 05:39:38;;;;;;;3.05;1.52;;;;;;;;;;5105764;28;20192;-69
2022/05/24 05:42:06;;;;;;;1.85;1.38;;;;;;;;;;5105958;28;20276;-69
2022/05/24 05:44:32;;;;;;;3.70;1.33;;;;;;;;;;5105634;28;20196;-69
2022/05/24 05:46:58;;;;;;;2.58;1.50;;;;;;;;;;5105353;28;20202;-69
2022/05/24 05:49:25;;;;;;;5.43;1.67;;;;;;;;;;5105540;28;20215;-69
2022/05/24 05:51:51;;;;;;;1.50;1.40;;;;;;;;;;5105454;28;20203;-69
2022/05/24 05:54:17;;;;;;;1.13;1.13;;;;;;;;;;5105596;28;20202;-69
2022/05/24 05:56:44;;;;;;;1.50;1.40;;;;;;;;;;5105119;28;20199;-69
2022/05/24 05:59:12;;;;;;;1.40;1.17;;;;;;;;;;5105453;28;20208;-69
2022/05/24 06:01:38;;;;;;;2.60;1.10;;;;;;;;;;5105703;28;20252;-69
2022/05/24 06:04:04;;;;;;;1.30;1.20;;;;;;;;;;5105254;28;20235;-69
2022/05/24 06:06:32;;;;;;;1.33;1.23;;;;;;;;;;5105343;28;20682;-69
2022/05/24 06:08:58;;;;;;;2.20;1.40;;;;;;;;;;5105117;28;20223;-69
2022/05/24 06:11:25;;;;;;;4.60;1.45;;;;;;;;;;5105040;28;20207;-70
2022/05/24 06:13:51;;;;;;;1.20;1.20;;;;;;;;;;5104632;28;20202;-69
2022/05/24 06:16:19;;;;;;;6.63;1.23;;;;;;;;;;5104875;28;20202;-69
2022/05/24 06:18:45;;;;;;;3.72;1.00;;;;;;;;;;5104892;28;20199;-69
2022/05/24 06:21:11;;;;;;;3.10;0.90;;;;;;;;;;5104891;28;20196;-69
2022/05/24 06:23:38;;;;;;;3.92;1.20;;;;;;;;;;5104848;28;20203;-69
2022/05/24 06:26:04;;;;;;;3.22;0.90;;;;;;;;;;5103995;28;20214;-69
2022/05/24 06:28:31;;;;;;;4.07;1.15;;;;;;;;;;5104315;28;20216;-70
2022/05/24 06:30:57;;;;;;;3.70;1.20;;;;;;;;;;5104441;28;20199;-69
2022/05/24 06:33:25;;;;;;;1.02;0.90;;;;;;;;;;5104588;28;20526;-69
2022/05/24 06:35:51;;;;;;;3.70;1.08;;;;;;;;;;5104630;28;20217;-69
2022/05/24 06:38:17;;;;;;;2.40;0.80;;;;;;;;;;5104301;28;20192;-69
2022/05/24 06:40:45;;;;;;;2.38;1.17;;;;;;;;;;5104339;28;20195;-69
2022/05/24 06:43:11;;;;;;;2.47;1.20;;;;;;;;;;5104328;28;20211;-69
2022/05/24 06:45:37;;;;;;;1.35;1.20;;;;;;;;;;5104137;28;20507;-69
2022/05/24 06:48:04;;;;;;;3.45;2.47;;;;;;;;;;5103912;28;20196;-69
2022/05/24 06:50:31;;;;;;;2.47;0.88;;;;;;;;;;5104470;28;20218;-69
2022/05/24 06:52:58;;;;;;;3.33;1.00;;;;;;;;;;5104260;28;20202;-70
2022/05/24 06:55:25;;;;;;;6.55;3.83;;;;;;;;;;5104154;28;20195;-70
2022/05/24 06:57:51;;;;;;;4.60;1.20;;;;;;;;;;5103741;28;20241;-69
2022/05/24 07:03:03;;;;;;;2.40;1.13;;;;;;;;;;5103848;28;20443;-69
2022/05/24 07:05:30;;;;;;;1.13;1.05;;;;;;;;;;5103765;28;20216;-60
2022/05/24 07:07:58;;;;;;;1.00;0.90;;;;;;;;;;5103838;28;20268;-59
2022/05/24 07:10:25;;;;;;;3.90;0.82;;;;;;;;;;5103472;28;20209;-59
2022/05/24 07:12:58;;;;;;;2.63;0.93;;;;;;;;;;5103425;28;20241;-59
2022/05/24 07:15:24;;;;;;;1.60;0.70;;;;;;;;;;5094707;28;20203;-60
2022/05/24 07:17:51;;;;;;;1.90;0.75;;;;;;;;;;5103434;28;20495;-60
2022/05/24 07:20:17;;;;;;;0.70;0.70;;;;;;;;;;5103527;28;20222;-60
2022/05/24 07:22:43;;;;;;;0.77;0.70;;;;;;;;;;5103464;28;20196;-58
2022/05/24 07:25:11;;;;;;;2.67;0.52;;;;;;;;;;5103356;28;20196;-58
2022/05/24 07:27:37;;;;;;;7.13;0.30;;;;;;;;;;5103176;28;20202;-60
2022/05/24 07:30:04;;;;;;;1.08;0.40;;;;;;;;;;5103006;28;20220;-60
2022/05/24 07:32:31;;;;;;;1.77;0.50;;;;;;;;;;5103290;28;20530;-60
2022/05/24 07:34:59;;;;;;;2.67;0.40;;;;;;;;;;5103145;28;20223;-59
2022/05/24 07:37:25;;;;;;;1.00;0.50;;;;;;;;;;5102679;28;20196;-60
2022/05/24 07:45:47;;;;;;;2.20;0.43;;;;;;;;;;5104038;28;20199;-60
2022/05/24 07:48:12;;;;;;;2.78;0.50;;;;;;;;;;5077486;28;20649;-60
2022/05/24 07:50:39;;;;;;;0.65;0.50;;;;;;;;;;5102612;28;20203;-60
2022/05/24 07:53:05;;;;;;;0.68;0.50;;;;;;;;;;5102738;28;20196;-60
2022/05/24 07:55:32;;;;;;;2.65;0.70;;;;;;;;;;5103150;28;20200;-60
2022/05/24 07:58:00;;;;;;;3.10;0.60;;;;;;;;;;5102540;28;20200;-60
2022/05/24 08:00:26;;;;;;;1.65;0.50;;;;;;;;;;5103039;28;20199;-60
2022/05/24 08:02:53;;;;;;;1.13;0.57;;;;;;;;;;5102782;28;20218;-60
2022/05/24 08:05:20;;;;;;;3.42;0.50;;;;;;;;;;5102888;28;20311;-58
2022/05/24 08:07:46;;;;;;;0.70;0.70;;;;;;;;;;5102484;28;20398;-60
2022/05/24 08:10:13;;;;;;;2.38;0.60;;;;;;;;;;5102355;28;20220;-60
2022/05/24 08:12:39;;;;;;;4.32;0.43;;;;;;;;;;5102551;28;20195;-59
2022/05/24 08:15:08;;;;;;;0.82;0.40;;;;;;;;;;5102324;28;20199;-60
2022/05/24 08:17:35;;;;;;;0.65;0.40;;;;;;;;;;5102082;28;20203;-60
2022/05/24 08:20:01;;;;;;;0.50;0.50;;;;;;;;;;5102449;28;20202;-60
2022/05/24 08:22:27;;;;;;;1.30;0.88;;;;;;;;;;5102309;28;20204;-60
2022/05/24 08:24:54;;;;;;;2.70;0.70;;;;;;;;;;5102240;28;20203;-60
2022/05/24 08:27:20;;;;;;;1.55;0.47;;;;;;;;;;5102101;28;20196;-60
2022/05/24 08:29:46;;;;;;;3.83;0.68;;;;;;;;;;5101917;28;20218;-60
2022/05/24 08:32:14;;;;;;;0.93;0.65;;;;;;;;;;5102299;28;20534;-60
2022/05/24 08:34:40;;;;;;;2.53;0.82;;;;;;;;;;5102290;28;20203;-60
2022/05/24 08:37:07;;;;;;;2.20;0.57;;;;;;;;;;5101900;28;20207;-61
2022/05/24 08:39:33;;;;;;;4.13;0.60;;;;;;;;;;5102026;28;20191;-60
2022/05/24 08:42:04;;;;;;;0.32;0.30;;;;;;;;;;5101899;28;20202;-61
2022/05/24 08:50:06;;;;;;;0.35;0.35;;;;;;;;;;5101938;28;20214;-60
2022/05/24 08:52:35;;;;;;;0.20;0.20;;;;;;;;;;5101910;28;20209;-59
2022/05/24 08:55:03;;;;;;;0.30;0.30;;;;;;;;;;5101935;28;20196;-60
2022/05/24 08:57:34;;;;;;;1.45;0.47;;;;;;;;;;5101838;28;20229;-60
2022/05/24 09:00:02;;;;;;;3.53;0.40;;;;;;;;;;5102083;28;20200;-60
2022/05/24 09:02:29;;;;;;;1.63;0.30;;;;;;;;;;5101800;28;20523;-61
2022/05/24 09:04:56;;;;;;;2.05;0.77;;;;;;;;;;5101631;28;20215;-61
2022/05/24 09:07:26;;;;;;;0.40;0.40;;;;;;;;;;5101680;28;20200;-61
2022/05/24 09:09:55;;;;;;;0.35;0.20;;;;;;;;;;5101885;28;20223;-60
2022/05/24 09:12:28;;;;;;;1.55;0.40;;;;;;;;;;5101835;28;20420;-60
2022/05/24 09:15:00;;;;;;;0.65;0.28;;;;;;;;;;5101707;28;20202;-60
2022/05/24 09:17:34;;;;;;;0.40;0.32;;;;;;;;;;5101415;28;20202;-60
2022/05/24 09:20:00;;;;;;;0.57;0.43;;;;;;;;;;5101887;28;20195;-60
2022/05/24 09:22:33;;;;;;;0.40;0.40;;;;;;;;;;5101788;28;20196;-60
2022/05/24 09:25:00;;;;;;;0.60;0.47;;;;;;;;;;5101860;28;20196;-60
2022/05/24 09:27:28;;;;;;;0.47;0.40;;;;;;;;;;5101930;28;20549;-60
2022/05/24 09:29:57;;;;;;;0.28;0.28;;;;;;;;;;5101934;28;20275;-60
2022/05/24 09:32:29;;;;;;;0.70;0.40;;;;;;;;;;5102588;28;20414;-60
2022/05/24 09:35:02;;;;;;;0.38;0.35;;;;;;;;;;5102071;28;20203;-60
2022/05/24 09:37:29;;;;;;;0.70;0.60;;;;;;;;;;5101990;28;20429;-60
2022/05/24 09:39:59;;;;;;;0.55;0.20;;;;;;;;;;5102101;28;20199;-59
2022/05/24 09:42:28;;;;;;;1.55;0.30;;;;;;;;;;5101718;28;20199;-60
2022/05/24 09:44:58;;;;;;;0.70;0.40;;;;;;;;;;5102206;28;20234;-60
2022/05/24 09:47:27;;;;;;;0.40;0.40;;;;;;;;;;5101867;28;20211;-60
2022/05/24 09:49:54;;;;;;;2.67;0.43;;;;;;;;;;5102008;28;20423;-60
2022/05/24 09:52:22;;;;;;;0.32;0.32;;;;;;;;;;5102058;28;20526;-60
2022/05/24 09:54:53;;;;;;;1.90;0.38;;;;;;;;;;5102374;28;20518;-60
2022/05/24 09:57:22;;;;;;;0.75;0.20;;;;;;;;;;5101458;28;20225;-60
2022/05/24 09:59:59;;;;;;;2.65;0.40;;;;;;;;;;5103024;28;20511;-60
2022/05/24 10:02:27;;;;;;;2.05;0.30;;;;;;;;;;5105621;28;20210;-60
2022/05/24 10:04:54;;;;;;;1.02;0.30;;;;;;;;;;5105436;28;20290;-60
2022/05/24 10:07:23;;;;;;;0.30;0.30;;;;;;;;;;5105275;28;20227;-60
2022/05/24 10:10:07;;;;;;;1.45;0.20;;;;;;;;;;5105359;28;20223;-60
2022/05/24 10:12:41;;;;;;;0.85;0.30;;;;;;;;;;5105271;28;20262;-60
2022/05/24 10:15:13;;;;;;;0.28;0.28;;;;;;;;;;5105280;28;20195;-60
2022/05/24 10:17:44;;;;;;;2.95;0.35;;;;;;;;;;5105101;28;20201;-60
2022/05/24 10:20:14;;;;;;;0.77;0.32;;;;;;;;;;5105110;28;20203;-59
2022/05/24 10:22:46;;;;;;;0.35;0.20;;;;;;;;;;5105536;28;20349;-60
2022/05/24 10:25:15;;;;;;;0.85;0.40;;;;;;;;;;5105195;28;20468;-60
2022/05/24 10:27:47;;;;;;;0.30;0.30;;;;;;;;;;5104846;28;20218;-60
2022/05/24 10:30:19;;;;;;;0.63;0.25;;;;;;;;;;5105030;28;20224;-60
2022/05/24 10:38:35;;;;;;;1.23;0.40;;;;;;;;;;5104895;28;20530;-60
2022/05/24 10:41:06;;;;;;;0.38;0.20;;;;;;;;;;5104633;28;20192;-60
2022/05/24 10:43:44;;;;;;;1.13;0.20;;;;;;;;;;5104982;28;20196;-60
2022/05/24 10:46:14;;;;;;;0.20;0.20;;;;;;;;;;5104445;28;20207;-60
2022/05/24 10:48:44;;;;;;;1.15;0.32;;;;;;;;;;5104665;28;20207;-60
2022/05/24 10:51:13;;;;;;;0.57;0.38;;;;;;;;;;5104559;28;20551;-60
2022/05/24 10:53:44;;;;;;;0.28;0.28;;;;;;;;;;5104601;28;20203;-60
2022/05/24 10:56:19;;;;;;;1.95;0.32;;;;;;;;;;5104336;28;20202;-60
2022/05/24 10:58:47;;;;;;;0.22;0.20;;;;;;;;;;5104680;28;20270;-59
2022/05/24 11:01:18;;;;;;;1.65;0.35;;;;;;;;;;5104336;28;20200;-59
2022/05/24 11:03:46;;;;;;;1.55;0.30;;;;;;;;;;5104217;28;20204;-60
2022/05/24 11:06:16;;;;;;;0.30;0.30;;;;;;;;;;5103933;28;20220;-60
2022/05/24 11:08:47;;;;;;;0.30;0.30;;;;;;;;;;5104156;28;20203;-60
2022/05/24 11:11:21;;;;;;;0.85;0.30;;;;;;;;;;5103312;28;20384;-60
2022/05/24 11:13:52;;;;;;;0.50;0.30;;;;;;;;;;5104344;28;20371;-59
2022/05/24 11:16:20;;;;;;;0.63;0.30;;;;;;;;;;5104302;28;20203;-60
2022/05/24 11:18:47;;;;;;;0.88;0.40;;;;;;;;;;5104114;28;20240;-60
2022/05/24 11:21:15;;;;;;;0.43;0.30;;;;;;;;;;5104181;28;20196;-60
2022/05/24 11:23:46;;;;;;;0.25;0.20;;;;;;;;;;5104101;28;20525;-60
2022/05/24 11:26:14;;;;;;;0.73;0.50;;;;;;;;;;5103668;28;20196;-60
2022/05/24 11:28:43;;;;;;;0.50;0.20;;;;;;;;;;5103768;28;20199;-60
2022/05/24 11:31:24;;;;;;;0.30;0.30;;;;;;;;;;5103978;28;20227;-60
2022/05/24 11:33:52;;;;;;;1.17;0.40;;;;;;;;;;5101416;28;20306;-60
2022/05/24 11:36:25;;;;;;;3.95;0.50;;;;;;;;;;5103470;28;20199;-60
2022/05/24 11:38:53;;;;;;;2.38;0.32;;;;;;;;;;5103781;28;20199;-59
2022/05/24 11:41:26;;;;;;;0.50;0.40;;;;;;;;;;5103514;28;20192;-60
2022/05/24 11:44:03;;;;;;;0.30;0.30;;;;;;;;;;5103861;28;20200;-60
2022/05/24 11:46:38;;;;;;;1.35;0.30;;;;;;;;;;5103530;28;20208;-59
2022/05/24 11:49:05;;;;;;;0.32;0.30;;;;;;;;;;5103511;28;20199;-59
2022/05/24 11:51:35;;;;;;;0.70;0.20;;;;;;;;;;5103381;28;20219;-60
2022/05/24 11:54:04;;;;;;;0.20;0.20;;;;;;;;;;5103289;28;20195;-60
2022/05/24 11:56:30;;;;;;;0.28;0.28;;;;;;;;;;5103304;28;20218;-60
2022/05/24 11:58:58;;;;;;;0.50;0.30;;;;;;;;;;5103403;28;20427;-59
2022/05/24 12:01:35;;;;;;;0.32;0.32;;;;;;;;;;5103233;28;20207;-59
2022/05/24 12:10:02;;;;;;;0.47;0.25;;;;;;;;;;5103003;28;20226;-60
2022/05/24 12:12:30;;;;;;;0.52;0.45;;;;;;;;;;5103136;28;20495;-60
2022/05/24 12:15:06;;;;;;;1.55;0.30;;;;;;;;;;5103176;28;20435;-60
2022/05/24 12:17:32;;;;;;;0.43;0.30;;;;;;;;;;5102771;28;20195;-60
2022/05/24 12:19:59;;;;;;;0.32;0.32;;;;;;;;;;5102736;28;20196;-60
2022/05/24 12:22:27;;;;;;;0.57;0.40;;;;;;;;;;5102542;28;20199;-60
2022/05/24 12:24:59;;;;;;;0.70;0.30;;;;;;;;;;5102837;28;20565;-60
2022/05/24 12:27:35;;;;;;;2.08;0.50;;;;;;;;;;5102517;28;20195;-60
2022/05/24 12:30:15;;;;;;;1.42;0.50;;;;;;;;;;5102782;28;20222;-60
2022/05/24 12:32:41;;;;;;;0.65;0.30;;;;;;;;;;5102847;28;20241;-60
2022/05/24 12:35:13;;;;;;;0.45;0.30;;;;;;;;;;5102637;28;20196;-60
2022/05/24 12:37:43;;;;;;;1.65;0.50;;;;;;;;;;5102355;28;20204;-59
2022/05/24 12:40:13;;;;;;;1.38;0.50;;;;;;;;;;5102600;28;20206;-60
2022/05/24 12:42:44;;;;;;;1.23;0.50;;;;;;;;;;5102489;28;20195;-60
2022/05/24 12:45:12;;;;;;;0.47;0.43;;;;;;;;;;5102710;28;20249;-60
2022/05/24 12:47:38;;;;;;;0.85;0.30;;;;;;;;;;5102352;28;20202;-60
2022/05/24 12:50:05;;;;;;;0.30;0.30;;;;;;;;;;5102828;28;20545;-60
2022/05/24 12:52:33;;;;;;;2.55;0.30;;;;;;;;;;5102716;28;20521;-60
2022/05/24 12:55:00;;;;;;;0.63;0.30;;;;;;;;;;5102631;28;20535;-60
2022/05/24 12:57:29;;;;;;;0.30;0.30;;;;;;;;;;5102386;28;20196;-60
2022/05/24 12:59:57;;;;;;;3.85;0.40;;;;;;;;;;5102785;28;20214;-60
2022/05/24 13:02:30;;;;;;;0.50;0.50;;;;;;;;;;5102746;28;20266;-60
2022/05/24 13:04:58;;;;;;;0.40;0.40;;;;;;;;;;5102493;28;20304;-60
2022/05/24 13:07:34;;;;;;;0.40;0.40;;;;;;;;;;5102184;28;20245;-58
2022/05/24 13:10:01;;;;;;;0.30;0.30;;;;;;;;;;5102083;28;20498;-59
2022/05/24 13:12:29;;;;;;;1.65;0.30;;;;;;;;;;5102482;28;20502;-60
2022/05/24 13:14:57;;;;;;;0.30;0.30;;;;;;;;;;5102308;28;20195;-60
2022/05/24 13:17:24;;;;;;;1.20;0.20;;;;;;;;;;5101922;28;20207;-58
2022/05/24 13:19:53;;;;;;;0.52;0.30;;;;;;;;;;5102354;28;20195;-58
2022/05/24 13:22:20;;;;;;;0.30;0.30;;;;;;;;;;5102289;28;20266;-58
2022/05/24 13:24:57;;;;;;;0.45;0.35;;;;;;;;;;5102322;28;20207;-58
2022/05/24 13:27:24;;;;;;;1.77;0.35;;;;;;;;;;5101968;28;20198;-58
2022/05/24 13:35:32;;;;;;;0.20;0.20;;;;;;;;;;5086752;28;20194;-58
2022/05/24 13:37:59;;;;;;;0.50;0.30;;;;;;;;;;5105519;28;20495;-59
2022/05/24 13:40:36;;;;;;;0.40;0.40;;;;;;;;;;5105599;28;20214;-58
2022/05/24 13:43:03;;;;;;;0.30;0.25;;;;;;;;;;5105542;28;20202;-60
2022/05/24 13:45:32;;;;;;;0.60;0.47;;;;;;;;;;5105594;28;20202;-60
2022/05/24 13:47:59;;;;;;;1.02;0.50;;;;;;;;;;5105057;28;20283;-60
2022/05/24 13:50:33;;;;;;;2.05;0.40;;;;;;;;;;5105256;28;20219;-59
2022/05/24 13:53:00;;;;;;;2.85;0.38;;;;;;;;;;5105460;28;20344;-59
2022/05/24 13:55:28;;;;;;;0.38;0.38;;;;;;;;;;5105651;28;20207;-59
2022/05/24 13:57:57;;;;;;;0.90;0.30;;;;;;;;;;5104851;28;20233;-59
2022/05/24 14:00:42;;;;;;;2.80;0.40;;;;;;;;;;5105130;28;20200;-60
2022/05/24 14:03:11;;;;;;;0.82;0.40;;;;;;;;;;5101780;28;20204;-59
2022/05/24 14:05:38;;;;;;;2.97;0.60;;;;;;;;;;5105443;28;20305;-60
2022/05/24 14:08:05;;;;;;;5.43;0.50;;;;;;;;;;5104815;28;20218;-60
2022/05/24 14:10:32;;;;;;;1.15;0.50;;;;;;;;;;5104795;28;20225;-58
2022/05/24 14:12:58;;;;;;;0.30;0.30;;;;;;;;;;5105081;28;20195;-60
2022/05/24 14:15:25;;;;;;;2.67;0.73;;;;;;;;;;5104747;28;20218;-60
2022/05/24 14:17:53;;;;;;;1.38;0.60;;;;;;;;;;5104393;28;20256;-60
2022/05/24 14:20:20;;;;;;;1.67;0.60;;;;;;;;;;5104827;28;20196;-60
2022/05/24 14:22:46;;;;;;;0.95;0.35;;;;;;;;;;5104558;28;20204;-58
2022/05/24 14:25:13;;;;;;;1.45;0.40;;;;;;;;;;5104608;28;20196;-59
2022/05/24 14:27:40;;;;;;;2.00;0.30;;;;;;;;;;5104178;28;20196;-59
2022/05/24 14:30:08;;;;;;;2.10;0.40;;;;;;;;;;5104119;28;20195;-60
2022/05/24 14:32:34;;;;;;;1.75;0.40;;;;;;;;;;5104329;28;20210;-60
2022/05/24 14:35:02;;;;;;;3.70;0.63;;;;;;;;;;5104411;28;20202;-60
2022/05/24 14:37:29;;;;;;;1.75;0.50;;;;;;;;;;5104515;28;20203;-60
2022/05/24 14:39:55;;;;;;;1.38;0.50;;;;;;;;;;5104837;28;20210;-60
2022/05/24 14:42:22;;;;;;;1.65;0.60;;;;;;;;;;5105104;28;20192;-60
2022/05/24 14:44:48;;;;;;;0.45;0.45;;;;;;;;;;5104693;28;20511;-58
2022/05/24 14:47:15;;;;;;;1.80;0.60;;;;;;;;;;5104334;28;20417;-58
2022/05/24 14:49:42;;;;;;;2.55;0.47;;;;;;;;;;5104532;28;20233;-60
2022/05/24 14:52:10;;;;;;;0.40;0.40;;;;;;;;;;5104641;28;20542;-60
2022/05/24 14:54:38;;;;;;;1.90;0.60;;;;;;;;;;5104571;28;20202;-60
2022/05/24 14:57:05;;;;;;;1.15;0.45;;;;;;;;;;5104157;28;20503;-60
2022/05/24 14:59:31;;;;;;;2.67;0.43;;;;;;;;;;5104583;28;20387;-60
2022/05/24 15:01:57;;;;;;;1.45;0.40;;;;;;;;;;5104615;28;20225;-59
2022/05/24 15:04:24;;;;;;;2.50;0.70;;;;;;;;;;5104395;28;20211;-60
2022/05/24 15:06:51;;;;;;;0.40;0.30;;;;;;;;;;5103988;28;20218;-60
2022/05/24 15:17:35;;;;;;;1.85;0.40;;;;;;;;;;5103926;28;20245;-59
2022/05/24 15:20:03;;;;;;;3.50;0.40;;;;;;;;;;5103800;28;20518;-60
2022/05/24 15:22:29;;;;;;;1.50;0.70;;;;;;;;;;5104101;28;20191;-60
2022/05/24 15:24:57;;;;;;;2.28;0.50;;;;;;;;;;5104040;28;20210;-59
2022/05/24 15:27:23;;;;;;;1.10;0.40;;;;;;;;;;5103744;28;20195;-60
2022/05/24 15:29:50;;;;;;;2.35;0.40;;;;;;;;;;5103764;28;20523;-60
2022/05/24 15:32:16;;;;;;;0.30;0.30;;;;;;;;;;5103764;28;20539;-60
2022/05/24 15:34:42;;;;;;;1.05;0.40;;;;;;;;;;5103584;28;20195;-60
2022/05/24 15:37:09;;;;;;;1.25;0.55;;;;;;;;;;5103622;28;20196;-60
2022/05/24 15:39:35;;;;;;;0.73;0.60;;;;;;;;;;5103755;28;20196;-59
2022/05/24 15:42:06;;;;;;;1.45;0.47;;;;;;;;;;5103705;28;20192;-60
2022/05/24 15:44:33;;;;;;;3.25;0.35;;;;;;;;;;5103663;28;20467;-60
2022/05/24 15:46:59;;;;;;;0.85;0.28;;;;;;;;;;5103277;28;20196;-58